createdAt,value
2023-03-20T00:03:28.730Z,6.64
2023-03-20T00:08:26.152Z,6.66
2023-03-20T00:13:26.241Z,6.62
2023-03-20T00:18:24.825Z,6.53
2023-03-20T00:23:21.896Z,6.51
2023-03-20T00:28:41.673Z,6.46
2023-03-20T00:33:38.207Z,6.46
2023-03-20T00:38:34.590Z,6.43
2023-03-20T00:43:31.711Z,6.30
2023-03-20T00:48:28.084Z,6.07
2023-03-20T00:53:24.442Z,5.99
2023-03-20T00:58:21.049Z,5.88
2023-03-20T01:03:23.054Z,5.87
2023-03-20T01:08:20.916Z,5.86
2023-03-20T01:13:22.975Z,5.89
2023-03-20T01:18:21.336Z,5.85
2023-03-20T01:23:17.728Z,6.00
2023-03-20T01:28:23.408Z,6.14
2023-03-20T01:33:22.103Z,6.38
2023-03-20T01:38:24.643Z,6.47
2023-03-20T01:43:22.818Z,6.73
2023-03-20T01:54:39.308Z,6.96
2023-03-20T01:59:47.262Z,6.97
2023-03-20T02:04:48.280Z,7.02
2023-03-20T02:09:47.809Z,7.19
2023-03-20T02:14:46.769Z,7.09
2023-03-20T02:20:11.072Z,7.04
2023-03-20T02:25:35.058Z,7.04
2023-03-20T02:30:53.157Z,7.06
2023-03-20T02:36:07.631Z,7.06
2023-03-20T02:41:29.410Z,7.13
2023-03-20T02:46:44.840Z,7.39
2023-03-20T02:52:05.606Z,7.43
2023-03-20T02:57:09.156Z,7.44
2023-03-20T03:02:10.416Z,7.25
2023-03-20T03:07:09.251Z,7.19
2023-03-20T03:12:12.402Z,7.19
2023-03-20T03:17:11.117Z,7.19
2023-03-20T03:22:08.182Z,7.23
2023-03-20T03:27:13.487Z,7.24
2023-03-20T03:32:25.260Z,7.25
2023-03-20T03:37:49.245Z,7.28
2023-03-20T03:42:58.645Z,7.31
2023-03-20T03:47:59.996Z,7.31
2023-03-20T03:53:01.398Z,7.32
2023-03-20T03:58:05.948Z,7.30
2023-03-20T04:03:06.134Z,7.30
2023-03-20T04:08:03.893Z,7.26
2023-03-20T04:13:00.742Z,7.25
2023-03-20T04:17:57.248Z,7.26
2023-03-20T04:22:53.692Z,7.27
2023-03-20T04:27:50.535Z,7.25
2023-03-20T04:32:46.975Z,7.20
2023-03-20T04:37:43.506Z,7.16
2023-03-20T04:42:40.095Z,7.13
2023-03-20T04:47:36.513Z,7.12
2023-03-20T04:52:32.896Z,7.11
2023-03-20T04:57:31.846Z,7.05
2023-03-20T05:02:29.898Z,7.05
2023-03-20T05:07:26.453Z,7.05
2023-03-20T05:12:22.931Z,7.03
2023-03-20T05:17:19.742Z,7.00
2023-03-20T05:22:17.449Z,6.99
2023-03-20T05:27:13.831Z,7.04
2023-03-20T05:32:10.396Z,7.04
2023-03-20T05:37:06.897Z,7.05
2023-03-20T05:42:03.482Z,7.06
2023-03-20T05:46:59.826Z,7.02
2023-03-20T05:51:56.226Z,7.01
2023-03-20T05:56:52.599Z,7.00
2023-03-20T06:01:48.969Z,7.01
2023-03-20T06:06:45.329Z,7.00
2023-03-20T06:11:41.703Z,7.01
2023-03-20T06:16:38.070Z,7.00
2023-03-20T06:21:34.414Z,7.05
2023-03-20T06:26:31.124Z,7.09
2023-03-20T06:31:27.641Z,7.11
2023-03-20T06:36:24.095Z,7.22
2023-03-20T06:41:33.880Z,7.17
2023-03-20T06:46:31.317Z,7.22
2023-03-20T06:51:27.754Z,7.23
2023-03-20T06:56:24.629Z,7.22
2023-03-20T07:01:21.726Z,7.26
2023-03-20T07:06:18.796Z,7.24
2023-03-20T07:11:15.358Z,7.24
2023-03-20T07:16:11.860Z,7.21
2023-03-20T07:21:08.894Z,7.22
2023-03-20T07:26:06.871Z,7.29
2023-03-20T07:31:03.415Z,7.27
2023-03-20T07:35:59.826Z,7.33
2023-03-20T07:40:56.292Z,7.45
2023-03-20T07:45:52.778Z,7.34
2023-03-20T07:50:49.215Z,7.31
2023-03-20T07:55:45.661Z,7.30
2023-03-20T08:00:43.218Z,7.35
2023-03-20T08:05:40.439Z,7.43
2023-03-20T08:10:37.059Z,7.46
2023-03-20T08:15:34.219Z,7.51
2023-03-20T08:20:31.695Z,7.53
2023-03-20T08:25:32.548Z,7.75
2023-03-20T08:30:29.038Z,7.82
2023-03-20T08:35:33.222Z,7.82
2023-03-20T08:40:42.499Z,8.15
2023-03-20T08:45:39.049Z,8.25
2023-03-20T08:50:35.539Z,8.11
2023-03-20T08:55:31.929Z,8.15
2023-03-20T09:00:28.338Z,7.93
2023-03-20T09:05:24.771Z,8.00
2023-03-20T09:10:21.998Z,7.92
2023-03-20T09:15:18.784Z,7.92
2023-03-20T09:20:15.471Z,8.07
2023-03-20T09:25:13.005Z,8.36
2023-03-20T09:30:10.809Z,7.91
2023-03-20T09:35:07.439Z,7.94
2023-03-20T09:40:05.637Z,8.00
2023-03-20T09:45:12.884Z,8.00
2023-03-20T09:50:28.536Z,7.99
2023-03-20T09:55:34.590Z,8.22
2023-03-20T10:00:34.592Z,8.24
2023-03-20T10:05:56.111Z,8.33
2023-03-20T10:11:29.729Z,8.60
2023-03-20T10:16:32.052Z,8.72
2023-03-20T10:21:43.877Z,8.70
2023-03-20T10:26:40.607Z,8.50
2023-03-20T10:31:55.328Z,8.63
2023-03-20T10:37:05.327Z,8.68
2023-03-20T10:42:06.714Z,8.74
2023-03-20T10:47:07.725Z,8.94
2023-03-20T10:52:11.855Z,8.89
2023-03-20T10:57:18.143Z,9.03
2023-03-20T11:02:17.099Z,8.77
2023-03-20T11:07:24.075Z,8.99
2023-03-20T11:12:21.034Z,8.93
2023-03-20T11:17:17.616Z,9.16
2023-03-20T11:22:25.906Z,9.41
2023-03-20T11:27:28.013Z,9.02
2023-03-20T11:32:35.913Z,8.80
2023-03-20T11:37:36.503Z,8.95
2023-03-20T11:42:34.085Z,9.12
2023-03-20T11:47:34.033Z,9.40
2023-03-20T11:52:36.706Z,9.63
2023-03-20T11:57:39.616Z,9.63
2023-03-20T12:02:37.341Z,9.32
2023-03-20T12:07:37.050Z,9.12
2023-03-20T12:13:06.651Z,9.16
2023-03-20T12:18:30.306Z,9.31
2023-03-20T12:23:41.789Z,9.25
2023-03-20T12:28:46.931Z,9.33
2023-03-20T12:34:11.575Z,9.38
2023-03-20T12:39:15.060Z,9.20
2023-03-20T12:44:20.093Z,9.12
2023-03-20T12:49:38.307Z,9.02
2023-03-20T12:54:59.467Z,9.24
2023-03-20T13:00:22.615Z,9.32
2023-03-20T13:05:42.630Z,9.27
2023-03-20T13:10:51.493Z,9.01
2023-03-20T13:15:58.951Z,8.89
2023-03-20T13:20:56.663Z,8.87
2023-03-20T13:26:14.472Z,8.78
2023-03-20T13:31:24.075Z,8.74
2023-03-20T13:36:24.276Z,8.89
2023-03-20T13:41:23.137Z,8.79
2023-03-20T13:46:28.181Z,8.84
2023-03-20T13:51:39.350Z,8.86
2023-03-20T13:56:46.803Z,8.84
2023-03-20T14:01:56.851Z,8.73
2023-03-20T14:06:57.624Z,8.63
2023-03-20T14:11:55.990Z,8.62
2023-03-20T14:17:08.288Z,8.73
2023-03-20T14:22:06.329Z,8.55
2023-03-20T14:27:03.313Z,8.67
2023-03-20T14:32:13.592Z,8.83
2023-03-20T14:37:28.833Z,8.73
2023-03-20T14:42:49.814Z,8.80
2023-03-20T14:48:01.807Z,8.77
2023-03-20T14:53:10.505Z,8.46
2023-03-20T14:58:35.915Z,8.44
2023-03-20T15:03:33.230Z,8.51
2023-03-20T15:08:33.515Z,8.39
2023-03-20T15:13:31.025Z,8.29
2023-03-20T15:18:27.946Z,8.22
2023-03-20T15:23:26.028Z,8.33
2023-03-20T15:28:25.404Z,8.20
2023-03-20T15:33:41.702Z,8.07
2023-03-20T15:38:39.014Z,8.16
2023-03-20T15:43:36.839Z,8.19
2023-03-20T15:48:33.248Z,8.16
2023-03-20T15:53:35.755Z,8.13
2023-03-20T15:58:32.917Z,8.13
2023-03-20T16:03:30.160Z,7.98
2023-03-20T16:08:34.266Z,7.86
2023-03-20T16:13:39.087Z,7.83
2023-03-20T16:18:38.446Z,7.94
2023-03-20T16:23:44.938Z,7.75
2023-03-20T16:28:41.358Z,7.77
2023-03-20T16:33:39.980Z,7.70
2023-03-20T16:38:38.845Z,7.65
2023-03-20T16:43:39.143Z,7.68
2023-03-20T16:48:43.039Z,7.55
2023-03-20T16:53:46.192Z,7.58
2023-03-20T16:58:45.722Z,7.57
2023-03-20T17:03:49.880Z,7.60
2023-03-20T17:08:50.853Z,7.49
2023-03-20T17:13:48.728Z,7.47
2023-03-20T17:18:46.519Z,7.40
2023-03-20T17:23:42.887Z,7.33
2023-03-20T17:28:39.498Z,7.18
2023-03-20T17:33:36.719Z,7.07
2023-03-20T17:38:33.098Z,7.04
2023-03-20T17:43:29.504Z,7.01
2023-03-20T17:48:26.919Z,6.99
2023-03-20T17:53:28.702Z,6.97
2023-03-20T17:58:25.630Z,6.95
2023-03-20T18:03:22.095Z,6.96
2023-03-20T18:08:21.339Z,6.94
2023-03-20T18:13:21.016Z,6.94
2023-03-20T18:18:18.332Z,6.95
2023-03-20T18:23:16.050Z,6.92
2023-03-20T18:28:20.328Z,6.95
2023-03-20T18:33:17.410Z,6.95
2023-03-20T18:38:14.394Z,6.94
2023-03-20T18:43:11.133Z,6.93
2023-03-20T18:48:12.070Z,6.92
2023-03-20T18:53:10.451Z,6.92
2023-03-20T18:58:07.026Z,6.92
2023-03-20T19:03:04.248Z,6.78
2023-03-20T19:08:00.937Z,6.67
2023-03-20T19:12:57.862Z,6.65
2023-03-20T19:17:54.490Z,6.61
2023-03-20T19:22:50.997Z,6.62
2023-03-20T19:27:48.241Z,6.66
2023-03-20T19:32:45.259Z,6.65
2023-03-20T19:37:41.691Z,6.63
2023-03-20T19:42:59.119Z,6.59
2023-03-20T19:47:54.781Z,6.52
2023-03-20T19:52:51.225Z,6.45
2023-03-20T19:57:48.085Z,6.43
2023-03-20T20:02:46.090Z,6.54
2023-03-20T20:08:12.830Z,6.65
2023-03-20T20:12:59.018Z,6.66
2023-03-20T20:17:55.475Z,6.69
2023-03-20T20:22:51.890Z,6.69
2023-03-20T20:27:48.750Z,6.72
2023-03-20T20:32:46.543Z,6.79
2023-03-20T20:43:01.609Z,6.80
2023-03-20T20:47:59.163Z,6.85
2023-03-20T20:52:56.756Z,6.88
2023-03-20T20:57:55.874Z,6.92
2023-03-20T21:02:52.906Z,6.95
2023-03-20T21:07:49.734Z,6.97
2023-03-20T21:12:58.536Z,6.95
2023-03-20T21:18:03.076Z,7.02
2023-03-20T21:22:59.541Z,7.05
2023-03-20T21:27:56.224Z,7.10
2023-03-20T21:32:52.913Z,7.11
2023-03-20T21:38:37.854Z,7.20
2023-03-20T21:43:05.903Z,7.18
2023-03-20T21:54:25.858Z,7.32
2023-03-20T22:05:01.299Z,7.37
2023-03-20T22:15:12.724Z,7.35
2023-03-20T22:36:18.603Z,7.44
2023-03-20T22:41:50.565Z,7.54
2023-03-20T22:46:39.917Z,7.45
2023-03-20T22:51:34.346Z,7.46
2023-03-20T22:56:32.101Z,7.50
2023-03-20T23:01:28.819Z,7.46
2023-03-20T23:06:27.384Z,7.57
2023-03-20T23:11:24.443Z,7.63
2023-03-20T23:16:20.878Z,7.58
2023-03-20T23:21:17.510Z,7.61
2023-03-20T23:26:16.547Z,7.69
2023-03-20T23:31:16.681Z,7.61
2023-03-20T23:36:25.020Z,7.64
2023-03-20T23:41:57.331Z,7.65
2023-03-20T23:46:48.145Z,7.67
2023-03-20T23:51:44.884Z,7.71
2023-03-20T23:56:41.287Z,7.71
